• Join FlightAware (Why Join?)
  • Login
  • US Flag 
03:57AM EDT


 

Airport Tracker/Info


-or-


 

Live Flight TrackerFlight Track Log ✈ KAP5 ✈ 23-Jun-2013 ✈ KALB - KOGS

Flight Track Log - Related Links

Times and Time Zones

All times are in EDT time to prevent confusion due to time zone crossing. See the KAP5 flight status page for this flight to view local times or setup timezone preferences in your user account.

Time Position Orientation Groundspeed Altitude Reporting Facility
EDT Latitude Longitude Course Direction KTS MPH feet Rate Location/Type
10:49AM 42.7067 -73.8217 202° Southwest 122 140 2,000  Level Boston Center
10:50AM 42.7106 -73.8558 279° West 113 130 3,100 1,080 Climbing Boston Center
10:51AM 42.7308 -73.8844 314° West 127 146 4,200 840 Climbing Boston Center
10:52AM 42.7706 -73.8911 353° North 131 151 4,900 600 Climbing Boston Center
10:53AM 42.8058 -73.8947 356° North 127 146 5,500 600 Climbing Boston Center
10:54AM 42.8433 -73.8956 359° North 131 151 6,200 660 Climbing Boston Center
10:55AM 42.8767 -73.8964 359° North 129 148 6,900 360 Climbing Boston Center
10:56AM 42.9161 -73.9031 353° North 138 159 7,000  Climbing Boston Center
10:57AM 42.9600 -73.9069 356° North 173 199 7,000  Level Boston Center
10:58AM 43.0078 -73.9081 359° North 177 204 7,000  Level Boston Center
10:59AM 43.0517 -73.9119 356° North 164 189 7,000  Level Boston Center
11:00AM 43.1014 -73.9189 354° North 164 189 7,000  Level Boston Center
11:01AM 43.1472 -73.9228 356° North 166 191 7,000 -60 Level Boston Center
11:02AM 43.1994 -73.9267 357° North 175 201 6,900 -60 Descending Boston Center
11:03AM 43.2411 -73.9278 359° North 171 197 6,900  Level Boston Center
11:04AM 43.2889 -73.9319 356° North 157 181 6,900  Level Boston Center
11:05AM 43.3306 -73.9414 351° North 162 186 6,900  Level Boston Center
11:06AM 43.3719 -73.9653 337° Northwest 162 186 6,900  Level Boston Center
11:07AM 43.4092 -73.9864 338° Northwest 149 171 6,900  Level Boston Center
11:08AM 43.4419 -74.0186 324° Northwest 144 166 6,900  Level Boston Center
11:09AM 43.4750 -74.0422 333° Northwest 144 166 6,900  Level Boston Center
11:10AM 43.5100 -74.0747 326° Northwest 144 166 6,900  Level Boston Center
11:11AM 43.5469 -74.1072 327° Northwest 149 171 6,900  Level Boston Center
11:12AM 43.5800 -74.1367 327° Northwest 149 171 6,900  Level Boston Center
11:13AM 43.6128 -74.1664 327° Northwest 149 171 6,900  Level Boston Center
11:14AM 43.6478 -74.1989 326° Northwest 149 171 6,900  Level Boston Center
11:15AM 43.6828 -74.2258 331° Northwest 149 171 6,900  Level Boston Center
11:16AM 43.7178 -74.2586 326° Northwest 149 171 6,900  Level Boston Center
11:17AM 43.7525 -74.2883 328° Northwest 149 171 6,900  Level Boston Center
11:18AM 43.7856 -74.3181 327° Northwest 149 171 7,000  Climbing Boston Center
11:19AM 43.8203 -74.3478 328° Northwest 149 171 7,000  Level Boston Center
11:20AM 43.8511 -74.3747 328° Northwest 149 171 7,000  Level Boston Center
11:21AM 43.8839 -74.4075 324° Northwest 149 171 7,000  Level Boston Center
11:22AM 43.9169 -74.4344 330° Northwest 149 171 7,000  Level Boston Center
11:23AM 43.9517 -74.4644 328° Northwest 149 171 7,000  Level Boston Center
11:24AM 43.9867 -74.4917 331° Northwest 149 171 7,000  Level Boston Center
11:25AM 44.0217 -74.5247 326° Northwest 149 171 7,000  Level Boston Center
11:26AM 44.0544 -74.5547 327° Northwest 149 171 7,000  Level Boston Center
11:27AM 44.0892 -74.5847 328° Northwest 149 171 7,000  Level Boston Center
11:28AM 44.1242 -74.6150 328° Northwest 149 171 7,000  Level Boston Center
11:29AM 44.1567 -74.6481 324° Northwest 149 171 7,000  Level Boston Center
11:30AM 44.1917 -74.6753 331° Northwest 149 171 7,000  Level Boston Center
11:31AM 44.2264 -74.7114 323° Northwest 149 171 7,000  Level Boston Center
11:32AM 44.2614 -74.7389 331° Northwest 149 171 7,000  Level Boston Center
11:33AM 44.2961 -74.7722 326° Northwest 149 171 7,000  Level Boston Center
11:34AM 44.3328 -74.8056 327° Northwest 149 171 7,000 -60 Level Boston Center
11:35AM 44.3656 -74.8331 329° Northwest 149 171 6,900  Descending Boston Center
11:36AM 44.4064 -74.8753 324° Northwest 149 171 7,000  Climbing Boston Center
11:37AM 44.4414 -74.9028 331° Northwest 149 171 7,000  Level Boston Center
11:38AM 44.4761 -74.9364 325° Northwest 149 171 7,000  Level Boston Center
11:39AM 44.5128 -74.9700 327° Northwest 149 171 7,000 -180 Level Boston Center
11:40AM 44.5475 -75.0006 328° Northwest 149 171 6,700 -540 Descending Boston Center
11:41AM 44.5864 -75.0372 326° Northwest 149 171 6,000 -840 Descending Boston Center
11:42AM 44.6231 -75.0681 329° Northwest 149 171 5,100 -900 Descending Boston Center
11:43AM 44.6617 -75.1078 324° Northwest 154 177 4,300 -840 Descending Boston Center
11:44AM 44.6986 -75.1417 327° Northwest 160 184 3,500 -540 Descending Boston Center
11:45AM 44.7369 -75.1842 322° Northwest 160 184 3,300 -180 Descending Boston Center
11:46AM 44.7717 -75.2208 323° Northwest 160 184 3,200 -60 Descending Boston Center
11:47AM 44.8081 -75.2608 322° Northwest 160 184 3,200  Level Boston Center
11:48AM 44.8428 -75.2975 323° Northwest 160 184 3,200  Level Boston Center